Time;durP1;ratioP1;P1;durP2;ratioP2;P2;SDS_P1;SDS_P2;PMS_P1;PMS_P2;Temp;Humidity;BMP_temperature;BMP_pressure;BME280_temperature;BME280_humidity;BME280_pressure;Samples;Min_cycle;Max_cycle;Signal;HPM_P1;HPM_P2
2021/05/09 00:00:24;;;;;;;;;;;;;;;4.30;100.00;99944.61;1732672;82;20511;-75
2021/05/09 00:02:51;;;;;;;;;;;;;;;4.28;100.00;99939.89;1732788;83;20123;-75
2021/05/09 00:05:20;;;;;;;;;;;;;;;4.26;100.00;99950.73;1732929;83;20123;-75
2021/05/09 00:07:47;;;;;;;;;;;;;;;4.24;100.00;99934.45;1732876;83;20139;-75
2021/05/09 00:10:17;;;;;;;;;;;;;;;4.21;100.00;99930.70;1732599;83;20239;-75
2021/05/09 00:12:45;;;;;;;;;;;;;;;4.17;100.00;99926.94;1732780;83;20487;-75
2021/05/09 00:15:13;;;;;;;;;;;;;;;4.17;100.00;99919.41;1732623;83;20151;-75
2021/05/09 00:17:41;;;;;;;;;;;;;;;4.14;100.00;99919.67;1732591;83;20138;-73
2021/05/09 00:20:10;;;;;;;;;;;;;;;4.13;100.00;99925.52;1732611;83;20139;-75
2021/05/09 00:22:37;;;;;;;;;;;;;;;4.14;100.00;99935.72;1732484;83;20135;-75
2021/05/09 00:25:05;;;;;;;;;;;;;;;4.15;100.00;99935.59;1732653;83;20385;-75
2021/05/09 00:27:33;;;;;;;;;;;;;;;4.13;100.00;99936.22;1734316;82;20158;-75
2021/05/09 00:30:00;;;;;;;;;;;;;;;4.11;100.00;99944.88;1737828;83;20171;-75
2021/05/09 00:32:28;;;;;;;;;;;;;;;4.09;100.00;99954.00;1737895;83;20234;-74
2021/05/09 00:34:58;;;;;;;;;;;;;;;4.09;100.00;99958.02;1737606;83;20293;-75
2021/05/09 00:37:25;;;;;;;;;;;;;;;4.08;100.00;99959.02;1737657;82;20168;-74
2021/05/09 00:39:52;;;;;;;;;;;;;;;4.06;100.00;99956.96;1737947;83;20131;-74
2021/05/09 00:42:20;;;;;;;;;;;;;;;4.05;100.00;99962.78;1730399;82;20178;-75
2021/05/09 00:44:48;;;;;;;;;;;;;;;4.04;100.00;99966.45;1730580;83;20401;-74
2021/05/09 00:47:16;;;;;;;;;;;;;;;4.02;100.00;99972.43;1782579;80;20210;-76
2021/05/09 00:49:44;;;;;;;;;;;;;;;4.01;100.00;99966.70;1784731;80;20392;-76
2021/05/09 00:52:12;;;;;;;;;;;;;;;4.01;100.00;99964.53;1784480;80;20209;-75
2021/05/09 00:54:45;;;;;;;;;;;;;;;3.98;100.00;99966.49;1784390;80;20138;-75
2021/05/09 00:57:13;;;;;;;;;;;;;;;3.97;100.00;99969.30;1784417;80;20202;-75
2021/05/09 00:59:43;;;;;;;;;;;;;;;3.93;100.00;99971.38;1773717;80;20122;-75
2021/05/09 01:02:10;;;;;;;;;;;;;;;3.92;100.00;99975.52;1784545;80;20126;-75
2021/05/09 01:04:38;;;;;;;;;;;;;;;3.91;100.00;99981.38;1773864;80;20161;-75
2021/05/09 01:07:05;;;;;;;;;;;;;;;3.88;100.00;99980.28;1774266;80;20126;-76
2021/05/09 01:09:33;;;;;;;;;;;;;;;3.86;100.00;99983.58;1784923;80;20142;-75
2021/05/09 01:12:02;;;;;;;;;;;;;;;3.84;100.00;99992.20;1786051;78;20181;-75
2021/05/09 01:14:29;;;;;;;;;;;;;;;3.83;100.00;99989.19;1786663;77;20210;-76
2021/05/09 01:16:57;;;;;;;;;;;;;;;3.80;100.00;99996.96;1787304;80;20142;-75
2021/05/09 01:19:25;;;;;;;;;;;;;;;3.80;100.00;100002.31;1787343;80;20130;-75
2021/05/09 01:21:52;;;;;;;;;;;;;;;3.80;100.00;99995.63;1784473;80;20146;-77
2021/05/09 01:24:20;;;;;;;;;;;;;;;3.82;100.00;100003.52;1783760;80;20418;-75
2021/05/09 01:26:48;;;;;;;;;;;;;;;3.82;100.00;100010.20;1783789;80;20217;-74
2021/05/09 01:29:15;;;;;;;;;;;;;;;3.79;100.00;100005.98;1770951;80;20169;-75
2021/05/09 01:31:45;;;;;;;;;;;;;;;3.79;100.00;100010.48;1783761;80;20126;-75
2021/05/09 01:34:12;;;;;;;;;;;;;;;3.78;100.00;100009.61;1783954;80;20232;-76
2021/05/09 01:36:40;;;;;;;;;;;;;;;3.78;100.00;100016.80;1792627;79;20132;-75
2021/05/09 01:39:08;;;;;;;;;;;;;;;3.76;100.00;100016.92;1814379;78;20226;-76
2021/05/09 01:41:36;;;;;;;;;;;;;;;3.77;100.00;100024.45;1814086;79;20234;-75
2021/05/09 01:44:05;;;;;;;;;;;;;;;3.78;100.00;100032.35;1814332;79;20139;-74
2021/05/09 01:46:32;;;;;;;;;;;;;;;3.76;100.00;100028.96;1814581;79;20136;-75
2021/05/09 01:49:00;;;;;;;;;;;;;;;3.75;100.00;100020.59;1816712;79;20202;-75
2021/05/09 01:51:28;;;;;;;;;;;;;;;3.73;100.00;100019.84;1814403;79;20127;-74
2021/05/09 01:53:55;;;;;;;;;;;;;;;3.73;100.00;100018.51;1815719;78;20381;-73
2021/05/09 01:56:23;;;;;;;;;;;;;;;3.72;100.00;100019.50;1815117;79;20116;-74
2021/05/09 01:58:51;;;;;;;;;;;;;;;3.71;100.00;100018.29;1816768;79;20432;-75
2021/05/09 02:01:21;;;;;;;;;;;;;;;3.70;100.00;100021.47;1817966;78;20135;-74
2021/05/09 02:03:51;;;;;;;;;;;;;;;3.72;100.00;100027.53;1803919;79;20146;-75
2021/05/09 02:06:20;;;;;;;;;;;;;;;3.73;100.00;100032.38;1782017;79;20550;-76
2021/05/09 02:08:49;;;;;;;;;;;;;;;3.73;100.00;100038.56;1807589;79;20189;-76
2021/05/09 02:11:22;;;;;;;;;;;;;;;3.72;100.00;100036.02;1807724;79;20134;-76
2021/05/09 02:13:49;;;;;;;;;;;;;;;3.72;100.00;100046.71;1807997;79;20469;-75
2021/05/09 02:16:26;;;;;;;;;;;;;;;3.74;100.00;100038.10;1890136;76;20216;-76
2021/05/09 02:18:54;;;;;;;;;;;;;;;3.71;100.00;100046.38;1849726;78;20131;-75
2021/05/09 02:21:23;;;;;;;;;;;;;;;3.71;100.00;100047.20;1849608;77;20131;-75
2021/05/09 02:23:50;;;;;;;;;;;;;;;3.71;100.00;100052.56;1850104;78;20115;-74
2021/05/09 02:26:18;;;;;;;;;;;;;;;3.72;100.00;100056.95;1849974;78;20162;-76
2021/05/09 02:28:46;;;;;;;;;;;;;;;3.69;100.00;100053.67;1849930;77;20124;-75
2021/05/09 02:31:15;;;;;;;;;;;;;;;3.67;100.00;100047.61;1849975;77;20384;-75
2021/05/09 02:33:43;;;;;;;;;;;;;;;3.67;100.00;100047.61;1849781;77;20143;-75
2021/05/09 02:36:10;;;;;;;;;;;;;;;3.70;100.00;100048.67;1848506;77;20127;-77
2021/05/09 02:38:38;;;;;;;;;;;;;;;3.68;100.00;100055.97;1822676;79;20255;-76
2021/05/09 02:41:06;;;;;;;;;;;;;;;3.68;100.00;100056.81;1822618;79;20130;-76
2021/05/09 02:43:34;;;;;;;;;;;;;;;3.69;100.00;100056.34;1822724;79;20117;-74
2021/05/09 02:46:01;;;;;;;;;;;;;;;3.71;100.00;100065.09;1822810;79;20133;-76
2021/05/09 02:48:31;;;;;;;;;;;;;;;3.74;100.00;100064.84;1822680;79;20152;-76
2021/05/09 02:50:59;;;;;;;;;;;;;;;3.75;100.00;100065.19;1822601;79;20176;-76
2021/05/09 02:53:26;;;;;;;;;;;;;;;3.79;100.00;100076.02;1822843;79;20217;-76
2021/05/09 02:55:55;;;;;;;;;;;;;;;3.80;100.00;100075.02;1794482;79;20117;-75
2021/05/09 02:58:22;;;;;;;;;;;;;;;3.83;100.00;100073.44;1794272;79;20164;-76
2021/05/09 03:00:50;;;;;;;;;;;;;;;3.86;100.00;100077.20;1823043;79;20136;-76
2021/05/09 03:03:18;;;;;;;;;;;;;;;3.90;100.00;100083.16;1822898;79;20177;-76
2021/05/09 03:05:47;;;;;;;;;;;;;;;3.92;100.00;100082.03;1794100;79;20117;-75
2021/05/09 03:08:14;;;;;;;;;;;;;;;3.96;100.00;100082.62;1822739;79;20216;-76
2021/05/09 03:10:44;;;;;;;;;;;;;;;3.99;100.00;100088.58;1818508;79;20205;-77
2021/05/09 03:13:12;;;;;;;;;;;;;;;4.03;100.00;100103.05;1822716;79;20121;-76
2021/05/09 03:15:41;;;;;;;;;;;;;;;4.06;100.00;100097.45;1794578;79;20176;-77
2021/05/09 03:18:10;;;;;;;;;;;;;;;4.09;100.00;100103.39;1822732;79;20133;-76
2021/05/09 03:20:37;;;;;;;;;;;;;;;4.13;100.00;100100.81;1823028;79;20406;-76
2021/05/09 03:23:05;;;;;;;;;;;;;;;4.18;100.00;100103.95;1822867;79;20422;-76
2021/05/09 03:25:33;;;;;;;;;;;;;;;4.22;100.00;100115.75;1822716;79;20133;-75
2021/05/09 03:28:00;;;;;;;;;;;;;;;4.23;100.00;100109.40;1821977;79;20387;-75
2021/05/09 03:30:28;;;;;;;;;;;;;;;4.26;100.00;100113.16;1822115;79;20156;-76
2021/05/09 03:32:56;;;;;;;;;;;;;;;4.25;100.00;100116.80;1822366;79;20133;-76
2021/05/09 03:35:25;;;;;;;;;;;;;;;4.26;100.00;100122.03;1821925;79;20134;-77
2021/05/09 03:37:52;;;;;;;;;;;;;;;4.26;100.00;100116.68;1842540;78;20150;-76
2021/05/09 03:40:20;;;;;;;;;;;;;;;4.25;100.00;100124.37;1849173;78;20131;-75
2021/05/09 03:42:47;;;;;;;;;;;;;;;4.23;100.00;100131.65;1849621;78;20396;-76
2021/05/09 03:45:15;;;;;;;;;;;;;;;4.21;100.00;100130.94;1849608;78;20131;-78
2021/05/09 03:47:44;;;;;;;;;;;;;;;4.20;100.00;100133.27;1849304;78;20126;-76
2021/05/09 03:50:11;;;;;;;;;;;;;;;4.18;100.00;100140.08;1849420;78;20119;-75
2021/05/09 03:52:39;;;;;;;;;;;;;;;4.18;100.00;100139.24;1849398;78;20416;-74
2021/05/09 03:55:08;;;;;;;;;;;;;;;4.20;100.00;100152.00;1849221;77;20131;-76
2021/05/09 03:57:35;;;;;;;;;;;;;;;4.21;100.00;100158.20;1849220;78;20123;-76
2021/05/09 04:00:05;;;;;;;;;;;;;;;4.23;100.00;100164.27;1849541;78;20139;-76
2021/05/09 04:02:35;;;;;;;;;;;;;;;4.24;100.00;100151.26;1848322;78;20405;-76
2021/05/09 04:05:02;;;;;;;;;;;;;;;4.27;100.00;100158.55;1853372;77;20128;-77
2021/05/09 04:07:30;;;;;;;;;;;;;;;4.31;100.00;100168.02;1849128;77;20135;-76
2021/05/09 04:09:58;;;;;;;;;;;;;;;4.37;100.00;100174.21;1849327;78;20119;-76
2021/05/09 04:12:25;;;;;;;;;;;;;;;4.44;100.00;100181.22;1849335;78;20119;-75
2021/05/09 04:14:53;;;;;;;;;;;;;;;4.54;100.00;100177.30;1849156;77;20132;-75
2021/05/09 04:17:22;;;;;;;;;;;;;;;4.68;100.00;100174.30;1849208;78;20228;-77
2021/05/09 04:19:49;;;;;;;;;;;;;;;4.82;100.00;100178.98;1849468;77;20159;-77
2021/05/09 04:22:17;;;;;;;;;;;;;;;4.95;100.00;100176.45;1849635;78;20257;-77
2021/05/09 04:24:44;;;;;;;;;;;;;;;5.11;100.00;100179.99;1849608;78;20218;-78
2021/05/09 04:27:12;;;;;;;;;;;;;;;5.24;100.00;100179.80;1849829;78;20151;-79
2021/05/09 04:29:40;;;;;;;;;;;;;;;5.39;100.00;100186.99;1849425;78;20171;-79
2021/05/09 04:32:08;;;;;;;;;;;;;;;5.53;100.00;100178.23;1849614;78;20139;-76
2021/05/09 04:34:36;;;;;;;;;;;;;;;5.63;100.00;100176.41;1849563;77;20183;-76
2021/05/09 04:37:03;;;;;;;;;;;;;;;5.67;100.00;100172.00;1838767;78;20121;-80
2021/05/09 04:39:31;;;;;;;;;;;;;;;5.72;100.00;100176.97;1822340;79;20133;-80
2021/05/09 04:41:58;;;;;;;;;;;;;;;5.80;100.00;100175.77;1822437;79;20161;-76
2021/05/09 04:44:25;;;;;;;;;;;;;;;5.95;100.00;100179.41;1822467;79;20141;-78
2021/05/09 04:46:53;;;;;;;;;;;;;;;6.17;100.00;100192.63;1822649;79;20145;-79
2021/05/09 04:49:21;;;;;;;;;;;;;;;6.38;100.00;100185.80;1822985;79;20494;-78
2021/05/09 04:51:48;;;;;;;;;;;;;;;6.52;100.00;100187.73;1823001;79;20267;-77
2021/05/09 04:54:16;;;;;;;;;;;;;;;6.63;100.00;100183.55;1822924;79;20391;-81
2021/05/09 04:56:43;;;;;;;;;;;;;;;6.72;100.00;100181.84;1822397;79;20117;-78
2021/05/09 04:59:11;;;;;;;;;;;;;;;6.78;100.00;100182.60;1822882;79;20145;-76
2021/05/09 05:01:38;;;;;;;;;;;;;;;6.84;100.00;100187.42;1822305;79;20255;-78
2021/05/09 05:04:06;;;;;;;;;;;;;;;6.98;100.00;100198.23;1822847;79;20117;-76
2021/05/09 05:06:33;;;;;;;;;;;;;;;7.11;100.00;100192.03;1823042;79;20147;-78
2021/05/09 05:09:02;;;;;;;;;;;;;;;7.27;100.00;100187.90;1823021;79;20150;-76
2021/05/09 05:11:30;;;;;;;;;;;;;;;7.44;100.00;100200.59;1823506;79;20128;-78
2021/05/09 05:13:57;;;;;;;;;;;;;;;7.62;100.00;100207.39;1823550;79;20133;-80
2021/05/09 05:16:24;;;;;;;;;;;;;;;7.73;100.00;100209.03;1809196;79;20388;-79
2021/05/09 05:18:52;;;;;;;;;;;;;;;7.84;100.00;100213.37;1802287;80;20154;-78
2021/05/09 05:21:20;;;;;;;;;;;;;;;7.95;100.00;100213.16;1802177;80;20126;-77
2021/05/09 05:23:48;;;;;;;;;;;;;;;7.96;100.00;100217.56;1802222;80;20138;-78
2021/05/09 05:26:15;;;;;;;;;;;;;;;7.95;100.00;100231.54;1795284;80;20221;-77
2021/05/09 05:28:43;;;;;;;;;;;;;;;7.96;100.00;100221.09;1801952;80;20173;-79
2021/05/09 05:31:11;;;;;;;;;;;;;;;8.06;100.00;100221.57;1802067;80;20494;-80
2021/05/09 05:33:39;;;;;;;;;;;;;;;8.20;100.00;100222.88;1802462;80;20253;-79
2021/05/09 05:36:09;;;;;;;;;;;;;;;8.26;100.00;100229.03;1802760;79;20115;-78
2021/05/09 05:38:37;;;;;;;;;;;;;;;8.26;100.00;100229.03;1807724;77;20253;-78
2021/05/09 05:41:04;;;;;;;;;;;;;;;8.29;100.00;100227.38;1808152;77;20230;-79
2021/05/09 05:43:32;;;;;;;;;;;;;;;8.46;100.00;100219.83;1808809;79;20118;-78
2021/05/09 05:46:00;;;;;;;;;;;;;;;8.61;100.00;100216.11;1807127;79;20126;-79
2021/05/09 05:48:27;;;;;;;;;;;;;;;8.85;100.00;100213.28;1805550;79;20149;-78
2021/05/09 05:50:56;;;;;;;;;;;;;;;9.06;100.00;100216.98;1805887;80;20125;-78
2021/05/09 05:53:24;;;;;;;;;;;;;;;9.25;100.00;100212.75;1806118;80;20146;-76
2021/05/09 05:55:52;;;;;;;;;;;;;;;9.34;100.00;100204.20;1806291;80;20395;-80
2021/05/09 05:58:20;;;;;;;;;;;;;;;9.38;100.00;100210.97;1806274;79;20233;-78
2021/05/09 06:00:48;;;;;;;;;;;;;;;9.48;100.00;100219.81;1806426;79;20166;-78
2021/05/09 06:03:16;;;;;;;;;;;;;;;9.60;100.00;100217.69;1806407;79;20134;-77
2021/05/09 06:05:46;;;;;;;;;;;;;;;9.70;100.00;100214.86;1806457;79;20232;-77
2021/05/09 06:08:16;;;;;;;;;;;;;;;9.85;100.00;100223.22;1779418;80;20461;-79
2021/05/09 06:10:44;;;;;;;;;;;;;;;10.06;100.00;100227.69;1779269;81;20183;-78
2021/05/09 06:13:12;;;;;;;;;;;;;;;10.19;100.00;100219.11;1779273;81;20141;-77
2021/05/09 06:15:40;;;;;;;;;;;;;;;10.34;100.00;100216.67;1779144;80;20263;-79
2021/05/09 06:18:08;;;;;;;;;;;;;;;10.48;100.00;100227.31;1779254;81;20142;-76
2021/05/09 06:20:36;;;;;;;;;;;;;;;10.49;100.00;100230.37;1779012;81;20126;-77
2021/05/09 06:23:04;;;;;;;;;;;;;;;10.57;100.00;100231.75;1778902;81;20179;-79
2021/05/09 06:25:32;;;;;;;;;;;;;;;10.71;100.00;100239.72;1778877;81;20138;-80
2021/05/09 06:27:59;;;;;;;;;;;;;;;10.82;100.00;100239.38;1779133;81;20129;-78
2021/05/09 06:30:28;;;;;;;;;;;;;;;10.84;100.00;100243.28;1778995;81;20162;-81
2021/05/09 06:32:56;;;;;;;;;;;;;;;10.77;100.00;100244.97;1778160;81;20162;-78
2021/05/09 06:35:24;;;;;;;;;;;;;;;10.86;100.00;100248.01;1778440;81;20446;-77
2021/05/09 06:37:54;;;;;;;;;;;;;;;11.04;100.00;100246.48;1778714;81;20138;-77
2021/05/09 06:40:22;;;;;;;;;;;;;;;11.19;100.00;100239.88;1806160;79;20298;-78
2021/05/09 06:42:58;;;;;;;;;;;;;;;11.17;100.00;100254.95;1810649;79;20151;-76
2021/05/09 06:45:27;;;;;;;;;;;;;;;11.24;100.00;100259.16;1811099;79;20152;-77
2021/05/09 06:47:56;;;;;;;;;;;;;;;11.36;100.00;100269.14;1810172;79;20183;-78
2021/05/09 06:50:25;;;;;;;;;;;;;;;11.41;100.00;100253.23;1805236;79;20159;-77
2021/05/09 06:52:53;;;;;;;;;;;;;;;11.53;100.00;100259.16;1810419;79;20231;-78
2021/05/09 06:55:20;;;;;;;;;;;;;;;11.68;100.00;100261.47;1787558;79;20434;-78
2021/05/09 06:57:47;;;;;;;;;;;;;;;11.80;100.00;100257.06;1778201;81;20150;-79
2021/05/09 07:00:16;;;;;;;;;;;;;;;11.80;100.00;100247.05;1778427;81;20304;-78
2021/05/09 07:02:45;;;;;;;;;;;;;;;11.78;100.00;100255.35;1778489;81;20193;-78
2021/05/09 07:05:13;;;;;;;;;;;;;;;12.00;100.00;100248.03;1778853;80;20164;-78
2021/05/09 07:07:51;;;;;;;;;;;;;;;12.16;100.00;100247.96;1774250;81;20386;-79
2021/05/09 07:10:20;;;;;;;;;;;;;;;12.34;98.23;100244.50;1780237;80;20194;-78
2021/05/09 07:12:48;;;;;;;;;;;;;;;12.41;99.72;100256.84;1787526;80;20470;-81
2021/05/09 07:15:24;;;;;;;;;;;;;;;12.31;92.35;100254.86;1787048;80;20126;-78
2021/05/09 07:18:01;;;;;;;;;;;;;;;12.12;92.52;100262.89;1843708;78;20194;-79
2021/05/09 07:20:27;;;;;;;;;;;;;;;12.00;96.80;100268.36;1839317;78;20143;-78
2021/05/09 07:22:55;;;;;;;;;;;;;;;12.04;100.00;100250.23;1843723;78;20392;-76
2021/05/09 07:25:23;;;;;;;;;;;;;;;12.30;100.00;100253.16;1844174;78;20455;-79
2021/05/09 07:27:51;;;;;;;;;;;;;;;12.41;99.83;100264.11;1844188;78;20123;-79
2021/05/09 07:30:19;;;;;;;;;;;;;;;12.39;92.13;100264.28;1844170;78;20278;-80
2021/05/09 07:32:47;;;;;;;;;;;;;;;12.28;87.39;100256.56;1844442;78;20124;-79
2021/05/09 07:35:14;;;;;;;;;;;;;;;12.21;86.25;100259.64;1843926;77;20234;-79
2021/05/09 07:37:42;;;;;;;;;;;;;;;12.24;91.07;100250.64;1840607;78;20211;-80
2021/05/09 07:40:11;;;;;;;;;;;;;;;12.39;91.97;100264.80;1837935;78;20226;-81
2021/05/09 07:42:39;;;;;;;;;;;;;;;12.54;87.31;100253.55;1837994;78;20159;-79
2021/05/09 07:45:14;;;;;;;;;;;;;;;12.53;83.01;100260.81;1837766;78;20135;-76
2021/05/09 07:47:37;;;;;;;;;;;;;;;12.57;88.42;100260.47;1833167;78;20139;-77
2021/05/09 07:50:08;;;;;;;;;;;;;;;12.70;89.09;100267.52;1838104;78;20139;-81
2021/05/09 07:52:34;;;;;;;;;;;;;;;12.81;86.95;100244.55;1837785;78;20480;-76
2021/05/09 07:55:02;;;;;;;;;;;;;;;12.78;93.77;100262.02;1837668;78;20156;-76
2021/05/09 07:57:30;;;;;;;;;;;;;;;12.93;91.68;100249.89;1838269;78;20128;-79
2021/05/09 07:59:58;;;;;;;;;;;;;;;12.96;84.68;100260.87;1837703;78;20154;-77
2021/05/09 08:02:25;;;;;;;;;;;;;;;12.89;88.44;100256.68;1838040;78;20397;-79
2021/05/09 08:04:54;;;;;;;;;;;;;;;13.05;89.78;100259.30;1838047;78;20227;-76
2021/05/09 08:07:23;;;;;;;;;;;;;;;13.03;92.49;100271.34;1837788;78;20136;-77
2021/05/09 08:09:51;;;;;;;;;;;;;;;13.13;89.92;100258.38;1838226;78;20128;-77
2021/05/09 08:12:18;;;;;;;;;;;;;;;13.24;92.05;100263.87;1838198;78;20158;-78
2021/05/09 08:14:48;;;;;;;;;;;;;;;13.33;87.16;100256.53;1838177;78;20140;-78
2021/05/09 08:17:16;;;;;;;;;;;;;;;13.27;88.28;100248.59;1838013;78;20152;-80
2021/05/09 08:19:45;;;;;;;;;;;;;;;13.30;83.74;100259.92;1838302;78;20135;-82
2021/05/09 08:22:12;;;;;;;;;;;;;;;13.37;85.85;100266.86;1838137;78;20230;-79
2021/05/09 08:24:40;;;;;;;;;;;;;;;13.40;83.21;100272.42;1837996;78;20232;-77
2021/05/09 08:27:07;;;;;;;;;;;;;;;13.43;80.62;100274.78;1837652;78;20155;-77
2021/05/09 08:29:35;;;;;;;;;;;;;;;13.57;87.20;100275.32;1837695;78;20131;-78
2021/05/09 08:32:03;;;;;;;;;;;;;;;13.77;78.31;100271.54;1837747;78;20483;-78
2021/05/09 08:34:30;;;;;;;;;;;;;;;13.83;82.89;100269.98;1837904;78;20119;-78
2021/05/09 08:36:58;;;;;;;;;;;;;;;13.92;84.12;100281.08;1825739;78;20122;-78
2021/05/09 08:39:25;;;;;;;;;;;;;;;13.89;78.60;100280.08;1805158;80;20249;-80
2021/05/09 08:41:53;;;;;;;;;;;;;;;13.84;80.65;100268.40;1814979;79;20224;-83
2021/05/09 08:44:21;;;;;;;;;;;;;;;13.95;84.23;100279.84;1815973;79;20502;-80
2021/05/09 08:46:49;;;;;;;;;;;;;;;13.96;75.79;100285.09;1815785;79;20268;-78
2021/05/09 08:49:16;;;;;;;;;;;;;;;14.04;85.17;100312.20;1815973;79;20129;-80
2021/05/09 08:51:44;;;;;;;;;;;;;;;14.46;75.45;100299.47;1816197;79;20137;-79
2021/05/09 08:54:12;;;;;;;;;;;;;;;14.63;73.89;100299.61;1815737;79;20235;-78
2021/05/09 08:56:39;;;;;;;;;;;;;;;14.81;77.07;100294.56;1816127;79;20176;-78
2021/05/09 08:59:08;;;;;;;;;;;;;;;15.11;69.06;100306.72;1816092;79;20722;-77
2021/05/09 09:01:40;;;;;;;;;;;;;;;15.06;71.79;100308.34;1816298;79;20224;-78
2021/05/09 09:04:06;;;;;;;;;;;;;;;14.97;65.32;100311.70;1816364;79;20474;-78
2021/05/09 09:06:44;;;;;;;;;;;;;;;14.84;65.61;100315.14;1815935;79;20236;-80
2021/05/09 09:09:20;;;;;;;;;;;;;;;14.84;68.84;100318.36;1816170;79;20208;-77
2021/05/09 09:11:55;;;;;;;;;;;;;;;14.74;69.01;100315.95;1816187;79;20229;-76
2021/05/09 09:14:29;;;;;;;;;;;;;;;14.70;70.99;100314.13;1816369;79;20399;-77
2021/05/09 09:17:18;;;;;;;;;;;;;;;14.79;76.82;100323.87;1816212;79;20414;-77
2021/05/09 09:20:08;;;;;;;;;;;;;;;14.97;75.58;100315.27;1816959;79;20146;-78
2021/05/09 09:22:52;;;;;;;;;;;;;;;14.71;72.41;100323.97;1817091;79;20232;-77
2021/05/09 09:25:23;;;;;;;;;;;;;;;14.60;76.57;100328.55;1789426;80;20415;-78
2021/05/09 09:27:52;;;;;;;;;;;;;;;14.69;71.27;100336.93;1789919;80;20146;-76
2021/05/09 09:30:22;;;;;;;;;;;;;;;14.56;67.54;100336.75;1789633;80;20130;-79
2021/05/09 09:33:15;;;;;;;;;;;;;;;14.42;71.04;100332.48;1789664;80;20235;-78
2021/05/09 09:35:43;;;;;;;;;;;;;;;14.27;68.24;100341.69;1789680;80;20241;-78
2021/05/09 09:38:24;;;;;;;;;;;;;;;14.20;73.61;100341.58;1818203;79;20174;-81
2021/05/09 09:41:09;;;;;;;;;;;;;;;14.27;73.17;100335.75;1822777;77;20171;-81
2021/05/09 09:43:37;;;;;;;;;;;;;;;14.33;71.86;100359.98;1834093;78;20113;-77
2021/05/09 09:46:04;;;;;;;;;;;;;;;14.12;74.92;100342.53;1834686;78;20117;-77
2021/05/09 09:48:41;;;;;;;;;;;;;;;13.84;79.18;100340.42;1833093;78;20133;-78
2021/05/09 09:51:08;;;;;;;;;;;;;;;13.67;80.74;100350.62;1831504;78;20160;-78
2021/05/09 09:53:42;;;;;;;;;;;;;;;13.65;78.20;100355.41;1831119;78;20442;-77
2021/05/09 09:56:15;;;;;;;;;;;;;;;13.94;86.61;100350.22;1831314;78;20481;-76
2021/05/09 09:58:48;;;;;;;;;;;;;;;14.37;83.11;100353.97;1831567;78;20502;-78
2021/05/09 10:01:24;;;;;;;;;;;;;;;14.79;68.60;100362.50;1831997;78;20156;-78
2021/05/09 10:03:53;;;;;;;;;;;;;;;14.95;67.12;100358.71;1832246;78;20390;-78
2021/05/09 10:06:21;;;;;;;;;;;;;;;14.66;68.92;100356.38;1831820;78;20167;-78
2021/05/09 10:08:50;;;;;;;;;;;;;;;14.23;70.94;100361.61;1831743;78;20140;-78
2021/05/09 10:11:19;;;;;;;;;;;;;;;13.89;78.35;100360.27;1831818;78;20133;-77
2021/05/09 10:13:47;;;;;;;;;;;;;;;14.02;82.16;100371.86;1831970;78;20136;-77
2021/05/09 10:16:15;;;;;;;;;;;;;;;14.42;81.34;100361.05;1831739;78;20144;-79
2021/05/09 10:18:46;;;;;;;;;;;;;;;14.77;80.73;100369.50;1831713;78;20133;-79
2021/05/09 10:21:15;;;;;;;;;;;;;;;15.07;73.90;100374.01;1831570;78;20227;-80
2021/05/09 10:24:13;;;;;;;;;;;;;;;15.14;67.77;100379.87;1831344;78;20223;-78
2021/05/09 10:26:54;;;;;;;;;;;;;;;15.11;74.33;100372.08;1831169;78;20184;-77
2021/05/09 10:29:38;;;;;;;;;;;;;;;14.93;68.48;100379.32;1830993;78;20149;-79
2021/05/09 10:32:09;;;;;;;;;;;;;;;14.53;70.21;100385.57;1830915;78;20125;-78
2021/05/09 10:34:57;;;;;;;;;;;;;;;14.24;71.63;100380.47;1831030;78;20129;-78
2021/05/09 10:37:42;;;;;;;;;;;;;;;14.17;74.67;100382.77;1816328;78;20400;-77
2021/05/09 10:40:23;;;;;;;;;;;;;;;14.30;76.05;100382.12;1796241;80;20163;-79
2021/05/09 10:43:11;;;;;;;;;;;;;;;14.57;74.12;100385.55;1790714;80;20174;-78
2021/05/09 10:45:42;;;;;;;;;;;;;;;14.72;66.65;100383.36;1790728;80;20183;-79
2021/05/09 10:48:24;;;;;;;;;;;;;;;14.73;62.27;100376.36;1790763;80;20484;-80
2021/05/09 10:51:05;;;;;;;;;;;;;;;14.84;60.59;100380.47;1790486;80;20497;-77
2021/05/09 10:53:37;;;;;;;;;;;;;;;14.96;62.99;100388.97;1790137;80;20409;-79
2021/05/09 10:56:07;;;;;;;;;;;;;;;14.92;63.05;100392.59;1790126;80;20563;-76
2021/05/09 10:58:47;;;;;;;;;;;;;;;14.87;72.50;100389.59;1790152;80;20219;-76
2021/05/09 11:01:27;;;;;;;;;;;;;;;15.33;76.94;100385.72;1789999;80;20149;-76
2021/05/09 11:04:02;;;;;;;;;;;;;;;15.98;70.86;100371.55;1790231;80;20211;-76
2021/05/09 11:06:44;;;;;;;;;;;;;;;16.29;64.26;100384.78;1790362;80;20492;-78
2021/05/09 11:09:26;;;;;;;;;;;;;;;16.43;55.08;100395.77;1790177;80;20147;-77
2021/05/09 11:11:56;;;;;;;;;;;;;;;16.39;53.42;100392.59;1790457;80;20136;-77
2021/05/09 11:14:23;;;;;;;;;;;;;;;16.44;57.19;100390.11;1790334;80;20461;-78
2021/05/09 11:17:07;;;;;;;;;;;;;;;16.27;53.74;100389.60;1790376;80;20167;-77
2021/05/09 11:19:41;;;;;;;;;;;;;;;15.87;58.21;100393.91;1790076;80;20136;-76
2021/05/09 11:22:18;;;;;;;;;;;;;;;15.63;66.02;100400.58;1806192;78;20217;-76
2021/05/09 11:24:53;;;;;;;;;;;;;;;15.57;59.37;100400.32;1788841;80;20273;-75
2021/05/09 11:27:21;;;;;;;;;;;;;;;15.23;56.31;100410.56;1785574;80;20127;-77
2021/05/09 11:29:50;;;;;;;;;;;;;;;14.76;60.51;100408.62;1789470;80;20242;-75
2021/05/09 11:32:20;;;;;;;;;;;;;;;14.50;64.82;100408.23;1788795;80;20171;-77
2021/05/09 11:34:55;;;;;;;;;;;;;;;14.47;65.33;100409.47;1789242;80;20235;-78
2021/05/09 11:37:31;;;;;;;;;;;;;;;14.53;67.37;100404.62;1746445;82;20237;-81
2021/05/09 11:40:00;;;;;;;;;;;;;;;14.89;70.88;100401.66;1742202;82;20248;-78
2021/05/09 11:42:28;;;;;;;;;;;;;;;15.07;63.90;100407.55;1742274;82;20439;-76
2021/05/09 11:44:58;;;;;;;;;;;;;;;14.95;65.43;100406.36;1742300;82;20181;-76
2021/05/09 11:47:28;;;;;;;;;;;;;;;15.13;68.80;100401.85;1742049;82;20170;-76
2021/05/09 11:50:08;;;;;;;;;;;;;;;15.53;66.92;100399.03;1742083;82;20202;-79
2021/05/09 11:52:37;;;;;;;;;;;;;;;15.59;63.09;100415.65;1742059;82;20146;-76
2021/05/09 11:55:07;;;;;;;;;;;;;;;15.39;57.03;100410.84;1742348;82;20142;-75
2021/05/09 11:57:34;;;;;;;;;;;;;;;14.91;60.64;100409.98;1742200;82;20143;-75
2021/05/09 12:00:09;;;;;;;;;;;;;;;14.52;62.98;100416.55;1742123;82;20193;-75
2021/05/09 12:02:40;;;;;;;;;;;;;;;14.17;65.25;100423.04;1742272;82;20166;-76
2021/05/09 12:05:11;;;;;;;;;;;;;;;13.88;69.87;100432.48;1742294;82;20257;-77
2021/05/09 12:07:59;;;;;;;;;;;;;;;13.64;67.72;100435.74;1742163;82;20170;-75
2021/05/09 12:10:27;;;;;;;;;;;;;;;13.51;69.81;100430.92;1742159;82;20154;-76
2021/05/09 12:12:57;;;;;;;;;;;;;;;13.40;74.27;100427.24;1742020;82;20211;-77
2021/05/09 12:15:25;;;;;;;;;;;;;;;13.48;77.69;100428.03;1742340;82;20155;-76
2021/05/09 12:17:53;;;;;;;;;;;;;;;13.68;77.07;100429.75;1742024;82;20435;-76
2021/05/09 12:20:26;;;;;;;;;;;;;;;13.76;78.32;100428.02;1736792;82;20162;-77
2021/05/09 12:23:21;;;;;;;;;;;;;;;13.77;71.46;100437.32;1858597;77;20097;-76
2021/05/09 12:25:49;;;;;;;;;;;;;;;13.65;70.63;100430.13;1831165;78;20136;-76
2021/05/09 12:28:23;;;;;;;;;;;;;;;13.58;70.74;100435.96;1830849;78;20151;-76
2021/05/09 12:30:51;;;;;;;;;;;;;;;13.88;73.93;100432.48;1827173;78;20155;-79
2021/05/09 12:33:26;;;;;;;;;;;;;;;14.36;64.87;100433.91;1831185;78;20136;-76
2021/05/09 12:35:55;;;;;;;;;;;;;;;14.39;67.40;100444.39;1830965;78;20178;-77
2021/05/09 12:38:29;;;;;;;;;;;;;;;14.23;65.60;100444.56;1830975;78;20146;-76
2021/05/09 12:41:13;;;;;;;;;;;;;;;14.03;65.98;100462.77;1831097;78;20147;-77
2021/05/09 12:43:46;;;;;;;;;;;;;;;14.08;66.89;100446.40;1830814;78;20171;-76
2021/05/09 12:46:37;;;;;;;;;;;;;;;14.52;68.63;100443.77;1831103;78;20218;-74
2021/05/09 12:49:19;;;;;;;;;;;;;;;15.05;64.95;100430.05;1830969;78;20183;-78
2021/05/09 12:51:54;;;;;;;;;;;;;;;15.62;56.67;100429.73;1830751;78;20183;-77